Time;durP1;ratioP1;P1;durP2;ratioP2;P2;SDS_P1;SDS_P2;PMS_P1;PMS_P2;Temp;Humidity;BMP_temperature;BMP_pressure;BME280_temperature;BME280_humidity;BME280_pressure;Samples;Min_cycle;Max_cycle;Signal;HPM_P1;HPM_P2
2022/07/02 00:00:19;;;;;;;;;;;17.70;45.70;;;;;;6255233;22;19915;-94
2022/07/02 00:05:13;;;;;;;;;;;17.60;45.40;;;;;;6283641;22;19907;-94
2022/07/02 00:07:42;;;;;;;;;;;17.50;45.50;;;;;;6229699;22;19912;-93
2022/07/02 00:10:08;;;;;;;;;;;17.50;45.60;;;;;;6254885;22;19930;-93
2022/07/02 00:13:08;;;;;;;;;;;17.40;45.60;;;;;;6254139;22;19907;-93
2022/07/02 00:15:34;;;;;;;;;;;17.40;45.60;;;;;;6255971;22;19895;-93
2022/07/02 00:18:00;;;;;;;;;;;17.30;45.70;;;;;;6283382;22;20009;-93
2022/07/02 00:20:25;;;;;;;;;;;17.30;45.80;;;;;;6285023;22;19912;-92
2022/07/02 00:26:39;;;;;;;;;;;17.30;45.90;;;;;;6217492;23;19938;-94
2022/07/02 00:29:16;;;;;;;;;;;17.20;45.90;;;;;;6284241;22;19911;-94
2022/07/02 00:31:42;;;;;;;;;;;17.20;46.10;;;;;;6285197;22;19965;-94
2022/07/02 00:34:08;;;;;;;;;;;17.10;46.10;;;;;;6285603;22;19895;-94
2022/07/02 00:36:34;;;;;;;;;;;17.20;46.20;;;;;;6292109;22;19955;-94
2022/07/02 00:39:00;;;;;;;;;;;17.10;46.20;;;;;;6259671;22;19964;-94
2022/07/02 00:41:29;;;;;;;;;;;17.10;46.30;;;;;;6290565;22;19959;-94
2022/07/02 00:43:55;;;;;;;;;;;17.10;46.40;;;;;;6288097;22;20342;-93
2022/07/02 00:46:21;;;;;;;;;;;17.10;46.50;;;;;;6289511;22;19923;-93
2022/07/02 00:48:48;;;;;;;;;;;17.00;46.60;;;;;;6288987;22;19986;-94
2022/07/02 00:51:14;;;;;;;;;;;17.00;46.50;;;;;;6289284;22;19911;-94
2022/07/02 00:53:40;;;;;;;;;;;16.90;46.50;;;;;;6288546;22;19954;-95
2022/07/02 00:56:05;;;;;;;;;;;16.90;46.60;;;;;;6286738;22;19918;-95
2022/07/02 00:58:31;;;;;;;;;;;16.90;46.70;;;;;;6289929;22;19992;-94
2022/07/02 01:00:57;;;;;;;;;;;16.80;46.80;;;;;;6286925;22;20343;-94
2022/07/02 01:06:52;;;;;;;;;;;16.80;47.20;;;;;;6307766;22;19918;-93
2022/07/02 01:20:24;;;;;;;;;;;16.60;47.40;;;;;;6248253;22;19926;-96
2022/07/02 01:22:49;;;;;;;;;;;16.50;47.40;;;;;;6261509;22;19914;-96
2022/07/02 01:25:15;;;;;;;;;;;16.50;47.70;;;;;;6259715;22;19911;-95
2022/07/02 01:27:40;;;;;;;;;;;16.50;47.70;;;;;;6259220;22;19911;-95
2022/07/02 01:30:06;;;;;;;;;;;16.50;47.80;;;;;;6258328;22;20002;-96
2022/07/02 01:32:33;;;;;;;;;;;16.50;48.00;;;;;;6260784;22;19907;-96
2022/07/02 01:35:06;;;;;;;;;;;16.40;48.20;;;;;;6262012;22;19971;-95
2022/07/02 01:37:36;;;;;;;;;;;16.30;48.20;;;;;;6261825;22;19907;-95
2022/07/02 01:40:02;;;;;;;;;;;16.30;48.30;;;;;;6259845;22;19895;-95
2022/07/02 01:42:28;;;;;;;;;;;16.30;48.50;;;;;;6257390;22;19934;-94
2022/07/02 01:44:53;;;;;;;;;;;16.20;48.60;;;;;;6255513;22;20320;-93
2022/07/02 01:47:19;;;;;;;;;;;16.20;49.20;;;;;;6257645;22;19919;-94
2022/07/02 01:49:44;;;;;;;;;;;16.20;49.00;;;;;;6258189;22;19907;-94
2022/07/02 01:52:09;;;;;;;;;;;16.20;49.00;;;;;;6257696;22;19911;-93
2022/07/02 01:54:35;;;;;;;;;;;16.10;49.40;;;;;;6255711;22;19922;-94
2022/07/02 01:57:01;;;;;;;;;;;16.10;49.30;;;;;;6265303;22;19962;-94
2022/07/02 01:59:28;;;;;;;;;;;16.10;49.60;;;;;;6272243;22;19968;-95
2022/07/02 02:01:53;;;;;;;;;;;16.00;50.00;;;;;;6273109;22;19917;-96
2022/07/02 02:04:19;;;;;;;;;;;16.00;49.80;;;;;;6273349;22;19907;-95
2022/07/02 02:22:44;;;;;;;;;;;15.80;49.60;;;;;;6277395;22;19919;-94
2022/07/02 02:25:09;;;;;;;;;;;15.80;49.70;;;;;;6318745;22;19907;-95
2022/07/02 02:27:37;;;;;;;;;;;15.80;49.80;;;;;;6291292;22;19934;-95
2022/07/02 02:30:03;;;;;;;;;;;15.80;49.70;;;;;;6292159;22;20025;-94
2022/07/02 02:32:29;;;;;;;;;;;15.80;49.80;;;;;;6289754;22;19907;-94
2022/07/02 02:34:54;;;;;;;;;;;15.80;49.90;;;;;;6288648;22;19907;-95
2022/07/02 02:37:20;;;;;;;;;;;15.80;49.90;;;;;;6264905;22;19937;-96
2022/07/02 02:39:45;;;;;;;;;;;15.80;50.20;;;;;;6289515;22;19915;-94
2022/07/02 02:42:11;;;;;;;;;;;15.80;50.10;;;;;;6288743;22;19902;-95
2022/07/02 02:44:37;;;;;;;;;;;15.80;50.30;;;;;;6289228;22;19911;-95
2022/07/02 02:47:03;;;;;;;;;;;15.80;50.50;;;;;;6289112;22;19914;-96
2022/07/02 02:49:28;;;;;;;;;;;15.80;50.70;;;;;;6292934;22;19937;-96
2022/07/02 02:51:55;;;;;;;;;;;15.80;50.80;;;;;;6295152;22;20327;-96
2022/07/02 02:54:21;;;;;;;;;;;15.80;50.80;;;;;;6293035;22;19895;-96
2022/07/02 03:07:22;;;;;;;;;;;15.70;50.50;;;;;;6298885;22;19919;-95
2022/07/02 03:09:47;;;;;;;;;;;15.70;50.50;;;;;;6289479;22;19915;-96
2022/07/02 03:12:13;;;;;;;;;;;15.70;50.50;;;;;;6290757;22;19966;-95
2022/07/02 03:14:39;;;;;;;;;;;15.70;50.40;;;;;;6289622;22;19938;-95
2022/07/02 03:17:04;;;;;;;;;;;15.70;50.50;;;;;;6288413;22;19918;-94
2022/07/02 03:19:30;;;;;;;;;;;15.70;50.40;;;;;;6286408;22;19918;-93
2022/07/02 03:21:55;;;;;;;;;;;15.80;50.60;;;;;;6287897;22;19918;-93
2022/07/02 03:24:21;;;;;;;;;;;15.80;50.60;;;;;;6315390;22;19986;-94
2022/07/02 03:26:48;;;;;;;;;;;15.80;50.70;;;;;;6288253;22;19946;-95
2022/07/02 03:29:13;;;;;;;;;;;15.80;51.00;;;;;;6287006;22;19914;-93
2022/07/02 03:31:39;;;;;;;;;;;15.90;51.40;;;;;;6285264;22;19907;-93
2022/07/02 03:34:05;;;;;;;;;;;16.00;51.90;;;;;;6285566;22;19917;-93
2022/07/02 03:36:30;;;;;;;;;;;16.20;52.10;;;;;;6314062;22;19911;-93
2022/07/02 03:38:58;;;;;;;;;;;16.30;52.30;;;;;;6291183;22;19911;-94
2022/07/02 03:41:24;;;;;;;;;;;16.50;52.50;;;;;;6287053;22;19918;-94
2022/07/02 03:43:50;;;;;;;;;;;16.70;52.70;;;;;;6288131;22;19906;-95
2022/07/02 03:46:16;;;;;;;;;;;16.90;52.90;;;;;;6288546;22;19917;-96
2022/07/02 03:48:42;;;;;;;;;;;17.20;53.10;;;;;;6289712;22;19909;-95
2022/07/02 03:51:10;;;;;;;;;;;17.40;53.20;;;;;;6288280;22;19911;-95
2022/07/02 03:53:36;;;;;;;;;;;17.70;53.20;;;;;;6290596;22;19946;-95
2022/07/02 03:56:02;;;;;;;;;;;18.00;53.20;;;;;;6290666;22;19918;-94
2022/07/02 03:58:27;;;;;;;;;;;18.30;53.10;;;;;;6290780;22;19913;-94
2022/07/02 04:00:53;;;;;;;;;;;18.60;53.00;;;;;;6291025;22;19969;-96
2022/07/02 04:03:18;;;;;;;;;;;18.90;52.90;;;;;;6293532;22;19898;-95
2022/07/02 04:05:45;;;;;;;;;;;19.20;52.70;;;;;;6317271;22;20262;-95
2022/07/02 04:08:11;;;;;;;;;;;19.50;52.50;;;;;;6288887;22;19903;-94
2022/07/02 04:10:36;;;;;;;;;;;19.90;52.10;;;;;;6287463;22;20006;-94
2022/07/02 04:13:03;;;;;;;;;;;20.20;51.60;;;;;;6288693;22;20161;-95
2022/07/02 04:15:29;;;;;;;;;;;20.50;51.40;;;;;;6288543;22;19951;-93
2022/07/02 04:17:56;;;;;;;;;;;20.80;51.00;;;;;;6287756;22;19918;-94
2022/07/02 04:20:21;;;;;;;;;;;21.20;50.90;;;;;;6292079;22;20278;-96
2022/07/02 04:22:47;;;;;;;;;;;21.50;50.30;;;;;;6287681;22;19907;-95
2022/07/02 04:25:13;;;;;;;;;;;21.80;49.80;;;;;;6287287;22;19914;-96
2022/07/02 04:27:38;;;;;;;;;;;22.30;49.60;;;;;;6314603;22;19933;-94
2022/07/02 04:30:04;;;;;;;;;;;22.60;49.00;;;;;;6286159;22;19911;-95
2022/07/02 04:32:30;;;;;;;;;;;23.00;48.40;;;;;;6287811;22;19911;-94
2022/07/02 04:34:55;;;;;;;;;;;23.40;47.90;;;;;;6287870;22;20041;-94
2022/07/02 04:37:20;;;;;;;;;;;23.80;47.60;;;;;;6314521;22;20243;-94
2022/07/02 04:39:46;;;;;;;;;;;24.20;47.20;;;;;;6287446;22;19922;-93
2022/07/02 04:42:11;;;;;;;;;;;24.60;46.70;;;;;;6285767;22;20019;-93
2022/07/02 04:44:37;;;;;;;;;;;25.00;46.30;;;;;;6287229;22;19907;-92
2022/07/02 04:47:03;;;;;;;;;;;25.40;45.70;;;;;;6285571;22;19930;-91
2022/07/02 04:49:28;;;;;;;;;;;25.80;45.00;;;;;;6274876;22;19913;-91
2022/07/02 04:51:54;;;;;;;;;;;26.20;43.90;;;;;;6287223;22;19914;-92
2022/07/02 04:54:19;;;;;;;;;;;26.50;42.20;;;;;;6286730;22;20316;-91
2022/07/02 04:56:45;;;;;;;;;;;26.80;41.90;;;;;;6288493;22;19907;-92
2022/07/02 04:59:11;;;;;;;;;;;27.10;41.50;;;;;;6292361;22;19918;-94
2022/07/02 05:01:36;;;;;;;;;;;27.50;40.70;;;;;;6291669;22;19918;-95
2022/07/02 05:04:02;;;;;;;;;;;27.80;40.20;;;;;;6289138;22;19993;-92
2022/07/02 05:06:27;;;;;;;;;;;28.20;39.30;;;;;;6290106;22;19978;-93
2022/07/02 05:08:53;;;;;;;;;;;28.40;38.60;;;;;;6290977;22;19922;-94
2022/07/02 05:11:19;;;;;;;;;;;28.80;38.10;;;;;;6290670;22;19914;-96
2022/07/02 05:13:45;;;;;;;;;;;29.10;37.40;;;;;;6291110;22;19907;-95
2022/07/02 05:16:15;;;;;;;;;;;29.40;36.80;;;;;;6292598;22;19960;-96
2022/07/02 05:18:41;;;;;;;;;;;29.80;36.40;;;;;;6265776;22;19925;-96
2022/07/02 05:21:07;;;;;;;;;;;30.20;36.00;;;;;;6292047;22;19907;-95
2022/07/02 05:23:33;;;;;;;;;;;30.50;35.20;;;;;;6288654;22;20231;-93
2022/07/02 05:25:58;;;;;;;;;;;30.80;34.50;;;;;;6287859;22;19903;-94
2022/07/02 05:28:24;;;;;;;;;;;31.20;34.20;;;;;;6286579;22;19994;-93
2022/07/02 05:30:54;;;;;;;;;;;31.60;33.50;;;;;;6315826;22;19903;-95
2022/07/02 05:33:19;;;;;;;;;;;31.90;32.90;;;;;;6263854;22;19918;-94
2022/07/02 05:35:45;;;;;;;;;;;32.30;32.30;;;;;;6263254;22;19911;-93
2022/07/02 05:38:11;;;;;;;;;;;32.50;32.00;;;;;;6288857;22;19922;-93
2022/07/02 05:40:37;;;;;;;;;;;32.80;31.10;;;;;;6290987;22;19907;-94
2022/07/02 05:43:03;;;;;;;;;;;33.20;30.50;;;;;;6291206;22;19933;-94
2022/07/02 05:45:29;;;;;;;;;;;33.40;30.40;;;;;;6263546;22;19914;-94
2022/07/02 05:48:22;;;;;;;;;;;33.70;30.10;;;;;;6290234;22;19903;-95
2022/07/02 05:50:48;;;;;;;;;;;33.90;29.00;;;;;;6290119;22;20308;-95
2022/07/02 05:53:14;;;;;;;;;;;34.10;28.90;;;;;;6290904;22;19906;-94
2022/07/02 05:55:42;;;;;;;;;;;34.40;28.90;;;;;;6289001;22;19914;-93
2022/07/02 05:58:08;;;;;;;;;;;34.70;28.10;;;;;;6289353;22;20323;-95
2022/07/02 06:00:37;;;;;;;;;;;35.00;27.60;;;;;;6288585;22;19891;-94
2022/07/02 06:03:02;;;;;;;;;;;35.30;27.60;;;;;;6289161;22;19974;-94
2022/07/02 06:08:14;;;;;;;;;;;35.90;27.00;;;;;;6316435;22;20384;-95
2022/07/02 06:10:48;;;;;;;;;;;36.30;26.80;;;;;;6314865;22;19984;-94
2022/07/02 06:13:15;;;;;;;;;;;36.60;26.80;;;;;;6287247;22;19902;-95
2022/07/02 06:15:41;;;;;;;;;;;37.00;26.20;;;;;;6315253;22;20283;-96
2022/07/02 06:18:06;;;;;;;;;;;37.30;25.90;;;;;;6288641;22;19986;-96
2022/07/02 06:20:32;;;;;;;;;;;37.70;25.50;;;;;;6314368;22;19915;-95
2022/07/02 06:22:57;;;;;;;;;;;38.00;25.40;;;;;;6288523;22;19906;-95
2022/07/02 06:25:23;;;;;;;;;;;38.30;24.70;;;;;;6288428;22;19915;-93
2022/07/02 06:27:48;;;;;;;;;;;38.60;24.50;;;;;;6284447;22;19906;-93
2022/07/02 06:30:16;;;;;;;;;;;38.70;23.90;;;;;;6286454;22;20354;-94
2022/07/02 06:32:42;;;;;;;;;;;38.80;23.50;;;;;;6289018;22;19911;-94
2022/07/02 06:35:07;;;;;;;;;;;39.00;23.50;;;;;;6287743;22;19909;-94
2022/07/02 06:37:36;;;;;;;;;;;39.20;23.50;;;;;;6286719;22;19933;-95
2022/07/02 06:40:02;;;;;;;;;;;39.50;23.40;;;;;;6262797;22;19915;-93
2022/07/02 06:42:31;;;;;;;;;;;39.80;23.10;;;;;;6287856;22;19911;-95
2022/07/02 06:44:57;;;;;;;;;;;40.20;22.90;;;;;;6313837;22;19930;-96
2022/07/02 06:47:23;;;;;;;;;;;40.50;22.30;;;;;;6287020;22;19964;-95
2022/07/02 06:49:49;;;;;;;;;;;40.70;21.90;;;;;;6313976;22;20320;-94
2022/07/02 06:52:17;;;;;;;;;;;41.00;21.70;;;;;;6286700;22;19922;-95
2022/07/02 06:54:43;;;;;;;;;;;41.30;21.50;;;;;;6287699;22;19933;-94
2022/07/02 06:57:09;;;;;;;;;;;41.50;21.30;;;;;;6286237;22;19938;-95
2022/07/02 06:59:34;;;;;;;;;;;41.80;20.90;;;;;;6285134;22;20247;-94
2022/07/02 07:02:00;;;;;;;;;;;42.00;20.40;;;;;;6286567;22;19911;-96
2022/07/02 07:04:29;;;;;;;;;;;42.20;20.10;;;;;;6287637;22;19907;-95
2022/07/02 07:06:55;;;;;;;;;;;42.40;19.40;;;;;;6288080;22;20312;-96
2022/07/02 07:09:21;;;;;;;;;;;42.50;18.80;;;;;;6287209;22;19990;-94
2022/07/02 07:11:47;;;;;;;;;;;42.60;18.10;;;;;;6282216;22;20553;-94
2022/07/02 07:14:13;;;;;;;;;;;42.50;18.00;;;;;;6283083;22;19983;-93
2022/07/02 07:16:39;;;;;;;;;;;42.50;18.10;;;;;;6256682;22;19934;-93
2022/07/02 07:19:04;;;;;;;;;;;42.50;17.10;;;;;;6283373;22;19911;-93
2022/07/02 07:21:31;;;;;;;;;;;42.60;17.60;;;;;;6311035;22;19907;-94
2022/07/02 07:23:57;;;;;;;;;;;42.70;17.50;;;;;;6256684;22;20327;-92
2022/07/02 07:26:22;;;;;;;;;;;42.80;16.70;;;;;;6281438;22;19911;-94
2022/07/02 07:28:48;;;;;;;;;;;43.00;16.80;;;;;;6312255;22;19911;-93
2022/07/02 07:31:16;;;;;;;;;;;43.10;16.50;;;;;;6283362;22;19957;-96
2022/07/02 07:33:41;;;;;;;;;;;43.20;15.80;;;;;;6283500;22;19914;-94
2022/07/02 07:36:07;;;;;;;;;;;43.20;15.90;;;;;;6285011;22;20315;-96
2022/07/02 07:38:32;;;;;;;;;;;43.30;16.00;;;;;;6284839;22;20258;-96
2022/07/02 07:40:58;;;;;;;;;;;43.40;15.80;;;;;;6284432;22;19948;-95
2022/07/02 07:43:24;;;;;;;;;;;43.50;15.70;;;;;;6257783;22;20014;-95
2022/07/02 07:45:50;;;;;;;;;;;43.30;15.20;;;;;;6283764;22;19907;-95
2022/07/02 07:48:15;;;;;;;;;;;43.20;15.00;;;;;;6283537;22;19903;-96
2022/07/02 07:51:05;;;;;;;;;;;43.00;15.20;;;;;;6283447;22;19907;-95
2022/07/02 07:53:34;;;;;;;;;;;43.10;15.20;;;;;;6284899;22;20222;-95
2022/07/02 07:55:59;;;;;;;;;;;43.10;15.30;;;;;;6285194;22;20396;-94
2022/07/02 07:58:25;;;;;;;;;;;43.20;15.50;;;;;;6283811;22;19919;-93
2022/07/02 08:00:51;;;;;;;;;;;43.40;15.20;;;;;;6309380;22;19914;-92
2022/07/02 08:03:18;;;;;;;;;;;43.50;15.20;;;;;;6283404;22;20311;-92
2022/07/02 08:05:46;;;;;;;;;;;43.70;15.00;;;;;;6309275;22;20342;-93
2022/07/02 08:08:12;;;;;;;;;;;43.70;14.80;;;;;;6282449;22;19887;-92
2022/07/02 08:10:37;;;;;;;;;;;43.70;14.60;;;;;;6311144;22;19911;-93
2022/07/02 08:13:02;;;;;;;;;;;43.50;14.40;;;;;;6284135;22;19993;-92
2022/07/02 08:15:28;;;;;;;;;;;43.70;14.60;;;;;;6298446;22;19919;-95
2022/07/02 08:17:54;;;;;;;;;;;43.90;14.80;;;;;;6312006;22;19911;-95
2022/07/02 08:20:20;;;;;;;;;;;44.00;14.70;;;;;;6260494;22;19923;-95
2022/07/02 08:22:46;;;;;;;;;;;44.30;14.90;;;;;;6285516;22;19910;-95
2022/07/02 08:25:13;;;;;;;;;;;44.60;14.80;;;;;;6283085;22;20342;-94
2022/07/02 08:27:40;;;;;;;;;;;44.70;14.00;;;;;;6311063;22;20006;-96
2022/07/02 08:30:06;;;;;;;;;;;44.80;14.30;;;;;;6282704;22;19911;-95
2022/07/02 08:32:34;;;;;;;;;;;45.00;14.30;;;;;;6310921;22;19907;-94
2022/07/02 08:35:00;;;;;;;;;;;45.40;14.20;;;;;;6283395;22;19906;-95
2022/07/02 08:37:26;;;;;;;;;;;45.70;13.90;;;;;;6283644;22;19956;-95
2022/07/02 08:39:52;;;;;;;;;;;45.90;13.80;;;;;;6310149;22;20020;-96
2022/07/02 08:42:31;;;;;;;;;;;46.20;13.40;;;;;;6283473;22;20274;-96
2022/07/02 08:45:02;;;;;;;;;;;46.20;13.20;;;;;;6282935;22;19989;-95
2022/07/02 08:47:27;;;;;;;;;;;46.10;13.20;;;;;;6311312;22;19956;-94
2022/07/02 08:49:54;;;;;;;;;;;46.20;13.40;;;;;;6283269;22;20315;-96
2022/07/02 08:52:21;;;;;;;;;;;46.40;13.50;;;;;;6283871;22;19907;-95
2022/07/02 08:54:47;;;;;;;;;;;46.60;12.90;;;;;;6310417;22;19910;-93
2022/07/02 08:57:14;;;;;;;;;;;46.70;12.80;;;;;;6311183;22;19934;-94
2022/07/02 08:59:40;;;;;;;;;;;46.80;12.80;;;;;;6282725;22;19937;-93
2022/07/02 09:02:15;;;;;;;;;;;47.10;12.90;;;;;;6284809;22;19907;-96
2022/07/02 09:04:45;;;;;;;;;;;47.20;11.90;;;;;;6287034;22;19915;-96
2022/07/02 09:07:11;;;;;;;;;;;46.80;11.70;;;;;;6285197;22;19989;-95
2022/07/02 09:09:38;;;;;;;;;;;46.70;12.00;;;;;;6285286;22;19957;-95
2022/07/02 09:12:03;;;;;;;;;;;46.70;12.30;;;;;;6286368;22;19907;-96
2022/07/02 09:14:31;;;;;;;;;;;46.80;12.30;;;;;;6285879;22;19914;-95
2022/07/02 09:16:57;;;;;;;;;;;46.70;12.40;;;;;;6285459;22;19915;-95
2022/07/02 09:19:26;;;;;;;;;;;46.50;11.90;;;;;;6287372;22;19926;-94
2022/07/02 09:21:54;;;;;;;;;;;46.30;12.30;;;;;;6285198;22;19911;-94
2022/07/02 09:24:30;;;;;;;;;;;46.30;12.20;;;;;;6283709;22;20605;-93
2022/07/02 09:27:02;;;;;;;;;;;46.40;12.20;;;;;;6284462;22;19903;-95
2022/07/02 09:29:39;;;;;;;;;;;46.50;12.40;;;;;;6284151;22;20272;-93
2022/07/02 09:32:08;;;;;;;;;;;46.80;12.70;;;;;;6286121;22;19907;-94
2022/07/02 09:34:36;;;;;;;;;;;47.00;12.20;;;;;;6284706;22;19994;-94
2022/07/02 09:37:11;;;;;;;;;;;46.70;12.10;;;;;;6283991;22;19951;-95
2022/07/02 09:39:39;;;;;;;;;;;46.40;12.20;;;;;;6259079;22;19923;-94
2022/07/02 09:42:05;;;;;;;;;;;45.90;12.00;;;;;;6284933;22;19903;-95
2022/07/02 09:45:28;;;;;;;;;;;;;;;;;;;;;
2022/07/02 09:48:02;;;;;;;;;;;45.50;12.40;;;;;;6158291;23;19980;-95
2022/07/02 09:50:27;;;;;;;;;;;46.00;12.60;;;;;;6133748;23;20294;-91
2022/07/02 09:52:57;;;;;;;;;;;45.90;12.50;;;;;;6219595;22;19907;-91
2022/07/02 09:55:29;;;;;;;;;;;45.80;12.60;;;;;;6280972;22;19963;-91
2022/07/02 09:57:55;;;;;;;;;;;45.60;12.50;;;;;;6309917;22;20326;-91
2022/07/02 10:00:21;;;;;;;;;;;45.50;12.70;;;;;;6282987;22;20323;-91
2022/07/02 10:02:51;;;;;;;;;;;45.80;12.60;;;;;;6282127;22;19910;-91
2022/07/02 10:05:21;;;;;;;;;;;46.30;12.60;;;;;;6281953;22;19914;-90
2022/07/02 10:07:49;;;;;;;;;;;46.40;12.30;;;;;;6309819;22;19938;-91
2022/07/02 10:10:14;;;;;;;;;;;46.30;11.70;;;;;;6282495;22;19918;-91
2022/07/02 10:12:42;;;;;;;;;;;46.20;11.90;;;;;;6282919;22;19911;-91
2022/07/02 10:15:09;;;;;;;;;;;46.50;12.10;;;;;;6280145;22;19914;-90
2022/07/02 10:17:35;;;;;;;;;;;46.80;12.00;;;;;;6279841;22;19918;-89
2022/07/02 10:20:01;;;;;;;;;;;46.70;11.80;;;;;;6279589;22;20564;-90
2022/07/02 10:22:27;;;;;;;;;;;47.00;12.00;;;;;;6280604;22;20644;-91
2022/07/02 10:24:53;;;;;;;;;;;47.30;12.10;;;;;;6313146;22;19907;-91
2022/07/02 10:27:20;;;;;;;;;;;47.80;12.00;;;;;;6309000;22;19907;-90
2022/07/02 10:29:45;;;;;;;;;;;48.20;11.90;;;;;;6281598;22;19925;-91
2022/07/02 10:32:20;;;;;;;;;;;48.50;11.50;;;;;;6308683;22;19910;-91
2022/07/02 10:34:59;;;;;;;;;;;48.50;11.40;;;;;;6308220;22;19923;-91
2022/07/02 10:37:25;;;;;;;;;;;48.60;11.40;;;;;;6280271;22;19982;-92
2022/07/02 10:39:58;;;;;;;;;;;48.60;11.40;;;;;;6308252;22;19946;-90
2022/07/02 10:42:34;;;;;;;;;;;48.50;11.10;;;;;;6280386;22;19911;-92
2022/07/02 10:45:07;;;;;;;;;;;48.00;11.10;;;;;;6282605;22;19918;-93
2022/07/02 10:47:36;;;;;;;;;;;47.80;11.40;;;;;;6280969;22;19907;-92
2022/07/02 10:50:01;;;;;;;;;;;47.80;11.50;;;;;;6280079;22;20319;-91
2022/07/02 10:52:46;;;;;;;;;;;47.80;11.40;;;;;;6307794;22;19918;-92
2022/07/02 10:55:12;;;;;;;;;;;47.20;11.70;;;;;;6280128;22;19907;-93
2022/07/02 10:57:44;;;;;;;;;;;46.60;11.90;;;;;;6254992;22;19918;-95
2022/07/02 11:00:15;;;;;;;;;;;45.80;12.10;;;;;;6243136;22;20367;-92
2022/07/02 11:02:40;;;;;;;;;;;45.50;12.50;;;;;;6243598;23;20385;-94
2022/07/02 11:05:10;;;;;;;;;;;45.70;12.70;;;;;;6243531;22;19935;-92
2022/07/02 11:07:42;;;;;;;;;;;46.10;12.70;;;;;;6243797;22;19907;-94
2022/07/02 11:10:09;;;;;;;;;;;45.50;12.30;;;;;;6243878;23;19931;-91
2022/07/02 11:12:45;;;;;;;;;;;44.70;12.70;;;;;;6217931;23;19956;-91
2022/07/02 11:15:18;;;;;;;;;;;44.40;13.10;;;;;;6243368;23;20279;-91
2022/07/02 11:17:54;;;;;;;;;;;45.00;13.10;;;;;;6241394;22;19975;-91
2022/07/02 11:20:24;;;;;;;;;;;45.80;12.90;;;;;;6243210;23;19939;-91
2022/07/02 11:22:49;;;;;;;;;;;46.20;12.30;;;;;;6235961;23;20132;-92
2022/07/02 11:25:18;;;;;;;;;;;46.10;12.30;;;;;;6218258;23;19931;-93
2022/07/02 11:27:55;;;;;;;;;;;46.10;11.90;;;;;;6218360;23;19908;-93
2022/07/02 11:30:28;;;;;;;;;;;45.80;12.10;;;;;;6254950;22;19961;-96
2022/07/02 11:32:53;;;;;;;;;;;45.90;12.00;;;;;;6281680;22;19980;-92
2022/07/02 11:35:19;;;;;;;;;;;46.10;12.10;;;;;;6308343;22;19907;-92
2022/07/02 11:37:45;;;;;;;;;;;46.50;12.10;;;;;;6280592;22;20259;-94
2022/07/02 11:40:39;;;;;;;;;;;47.00;12.10;;;;;;6280853;22;19922;-92
2022/07/02 11:43:12;;;;;;;;;;;47.00;12.00;;;;;;6269365;22;19989;-93
2022/07/02 11:45:44;;;;;;;;;;;47.10;11.70;;;;;;6283347;22;19926;-96
2022/07/02 11:48:21;;;;;;;;;;;47.20;11.70;;;;;;6311548;22;20203;-96
2022/07/02 11:50:59;;;;;;;;;;;47.20;11.50;;;;;;6311917;22;19903;-95
2022/07/02 11:53:24;;;;;;;;;;;47.20;11.50;;;;;;6285393;22;19942;-96
2022/07/02 12:02:04;;;;;;;;;;;46.40;11.10;;;;;;6310567;22;19909;-94
2022/07/02 12:04:47;;;;;;;;;;;46.10;11.40;;;;;;6283804;22;19911;-96
2022/07/02 12:12:04;;;;;;;;;;;46.30;11.80;;;;;;6313329;22;19907;-96
2022/07/02 12:15:15;;;;;;;;;;;;;;;;;;;;;
2022/07/02 12:36:21;;;;;;;;;;;47.40;11.80;;;;;;6249640;23;19907;-95
2022/07/02 12:44:16;;;;;;;;;;;48.00;11.50;;;;;;6242259;22;19931;-91
2022/07/02 12:46:42;;;;;;;;;;;48.00;11.40;;;;;;6220354;23;19907;-91
2022/07/02 12:49:13;;;;;;;;;;;48.00;11.50;;;;;;6246014;23;19912;-91
2022/07/02 12:51:58;;;;;;;;;;;48.00;11.40;;;;;;6246521;23;19907;-91
2022/07/02 12:54:34;;;;;;;;;;;47.20;11.10;;;;;;6220732;23;20328;-92
2022/07/02 13:03:20;;;;;;;;;;;46.10;11.90;;;;;;6068086;23;20002;-94
2022/07/02 13:05:47;;;;;;;;;;;46.20;11.50;;;;;;6090987;23;20236;-92
2022/07/02 13:08:13;;;;;;;;;;;46.20;11.70;;;;;;6248164;23;19912;-92
2022/07/02 13:10:39;;;;;;;;;;;46.30;11.70;;;;;;6248267;23;19946;-95
2022/07/02 13:13:04;;;;;;;;;;;46.60;11.90;;;;;;6223028;23;19907;-94
2022/07/02 13:15:30;;;;;;;;;;;46.60;11.90;;;;;;6250209;22;19912;-96
2022/07/02 13:17:56;;;;;;;;;;;46.30;11.80;;;;;;6225058;23;19915;-96
2022/07/02 13:20:22;;;;;;;;;;;45.90;12.00;;;;;;6222509;23;19915;-93
2022/07/02 13:22:49;;;;;;;;;;;45.80;12.10;;;;;;6222255;23;20235;-96
2022/07/02 13:25:15;;;;;;;;;;;45.70;11.80;;;;;;6248118;23;19908;-91
2022/07/02 13:27:41;;;;;;;;;;;45.50;11.80;;;;;;6247561;23;19915;-89
2022/07/02 13:30:08;;;;;;;;;;;45.30;11.90;;;;;;6219804;23;19915;-90
2022/07/02 13:32:34;;;;;;;;;;;45.10;11.80;;;;;;6220120;23;20287;-92
2022/07/02 13:35:00;;;;;;;;;;;44.70;12.00;;;;;;6220234;23;20263;-91
2022/07/02 13:37:25;;;;;;;;;;;44.30;12.20;;;;;;6219518;23;19912;-93
2022/07/02 13:39:51;;;;;;;;;;;43.90;12.30;;;;;;6246286;23;19993;-91
2022/07/02 13:42:17;;;;;;;;;;;43.40;12.50;;;;;;6245633;23;19908;-90
2022/07/02 13:44:42;;;;;;;;;;;43.20;12.80;;;;;;6218967;23;19986;-90
2022/07/02 13:47:08;;;;;;;;;;;43.10;13.00;;;;;;6218405;23;19908;-89
2022/07/02 13:49:36;;;;;;;;;;;43.00;13.10;;;;;;6246634;23;19911;-93
2022/07/02 13:52:02;;;;;;;;;;;43.30;13.10;;;;;;6221039;23;19958;-94
2022/07/02 13:54:27;;;;;;;;;;;43.60;13.10;;;;;;6218693;23;19912;-93
2022/07/02 13:56:53;;;;;;;;;;;43.70;13.20;;;;;;6247062;23;20033;-92
2022/07/02 13:59:18;;;;;;;;;;;43.80;13.00;;;;;;6220019;23;19962;-92
2022/07/02 14:01:57;;;;;;;;;;;43.80;12.90;;;;;;6246895;23;19923;-93
2022/07/02 14:04:23;;;;;;;;;;;43.50;12.70;;;;;;6219262;23;19915;-93
2022/07/02 14:06:49;;;;;;;;;;;43.00;12.80;;;;;;6219297;23;20321;-93
2022/07/02 14:09:14;;;;;;;;;;;42.80;13.00;;;;;;6220721;23;19931;-93
2022/07/02 14:11:40;;;;;;;;;;;42.80;13.00;;;;;;6220952;23;19907;-93
2022/07/02 14:14:06;;;;;;;;;;;42.80;13.10;;;;;;6219758;23;20268;-93
2022/07/02 14:16:32;;;;;;;;;;;42.70;13.10;;;;;;6220360;23;19911;-93
2022/07/02 14:18:57;;;;;;;;;;;42.40;13.20;;;;;;6247926;23;19915;-94
2022/07/02 14:21:23;;;;;;;;;;;41.90;13.50;;;;;;6220650;23;20336;-92
2022/07/02 14:23:48;;;;;;;;;;;41.50;13.80;;;;;;6220194;23;19904;-93
2022/07/02 14:26:14;;;;;;;;;;;41.30;14.20;;;;;;6220476;23;19915;-93
2022/07/02 14:28:39;;;;;;;;;;;40.90;14.50;;;;;;6247482;23;20308;-92
2022/07/02 14:31:05;;;;;;;;;;;40.50;14.80;;;;;;6247879;23;19915;-92
2022/07/02 14:33:30;;;;;;;;;;;40.20;15.00;;;;;;6221823;23;20271;-95
2022/07/02 14:35:57;;;;;;;;;;;39.60;15.30;;;;;;6228866;23;19915;-96
2022/07/02 14:38:22;;;;;;;;;;;39.10;15.60;;;;;;6225993;23;19907;-96
2022/07/02 14:40:50;;;;;;;;;;;38.60;15.90;;;;;;6233203;23;19922;-95
2022/07/02 14:43:15;;;;;;;;;;;38.30;16.10;;;;;;6255243;23;19914;-96
2022/07/02 14:45:41;;;;;;;;;;;38.00;16.40;;;;;;6227237;23;19911;-94
2022/07/02 14:48:08;;;;;;;;;;;37.70;16.60;;;;;;6221887;23;19914;-93
2022/07/02 14:50:33;;;;;;;;;;;37.30;16.70;;;;;;6221157;23;19947;-92
2022/07/02 14:52:59;;;;;;;;;;;37.10;16.90;;;;;;6221568;23;19911;-92
2022/07/02 14:55:25;;;;;;;;;;;36.70;17.10;;;;;;6220806;23;20299;-93
2022/07/02 14:57:50;;;;;;;;;;;36.40;17.40;;;;;;6219598;23;19914;-92
2022/07/02 15:00:16;;;;;;;;;;;36.20;17.70;;;;;;6220651;23;19958;-92
2022/07/02 15:02:41;;;;;;;;;;;36.00;18.00;;;;;;6248450;23;19904;-92
2022/07/02 15:05:08;;;;;;;;;;;35.80;18.20;;;;;;6222634;23;19912;-95
2022/07/02 15:07:37;;;;;;;;;;;35.50;18.50;;;;;;6221277;23;19969;-93
2022/07/02 15:10:03;;;;;;;;;;;35.20;18.70;;;;;;6221989;23;19924;-93
2022/07/02 15:12:29;;;;;;;;;;;35.00;18.80;;;;;;6248191;23;19962;-93
2022/07/02 15:17:38;;;;;;;;;;;34.80;19.10;;;;;;6248350;22;19938;-92
2022/07/02 15:20:04;;;;;;;;;;;34.60;19.30;;;;;;6223840;23;20278;-93
2022/07/02 15:22:36;;;;;;;;;;;34.40;19.40;;;;;;6248260;23;19964;-92
2022/07/02 15:25:03;;;;;;;;;;;34.30;19.50;;;;;;6221526;23;19911;-94
2022/07/02 15:27:29;;;;;;;;;;;34.30;19.70;;;;;;6222203;23;19908;-93
2022/07/02 15:30:00;;;;;;;;;;;34.30;19.70;;;;;;6226350;23;19911;-93
2022/07/02 15:32:26;;;;;;;;;;;34.20;19.80;;;;;;6224610;23;20383;-93
2022/07/02 15:35:03;;;;;;;;;;;34.10;20.00;;;;;;6224364;23;19911;-92
2022/07/02 15:37:47;;;;;;;;;;;34.00;20.10;;;;;;6225409;23;20346;-93
2022/07/02 15:40:14;;;;;;;;;;;33.80;20.20;;;;;;6250677;23;19915;-93
2022/07/02 15:42:42;;;;;;;;;;;33.80;20.40;;;;;;6223258;23;19934;-93
2022/07/02 15:45:08;;;;;;;;;;;33.70;20.40;;;;;;6222927;23;19965;-93
2022/07/02 15:47:34;;;;;;;;;;;33.50;20.60;;;;;;6221612;23;19955;-93
2022/07/02 15:50:00;;;;;;;;;;;33.40;20.80;;;;;;6224177;23;19908;-93
2022/07/02 15:52:30;;;;;;;;;;;33.30;21.00;;;;;;6250458;23;19995;-93
2022/07/02 15:55:13;;;;;;;;;;;33.10;21.10;;;;;;6222861;23;19916;-93